»·PEaware :: N738TJ KSNA-KCRQ

N738TJ :: KSNA-KCRQ

FLIGHT INFORMATION

Flight Status: Arrived
Operator: Privately registered:
United States
More flights under this callsign
Pilot: Uriel C. (17435)
Aircraft: CESSNA 172 SKYHAWK
(C172)
More flights by this aircraft type
Origin: KSNA John Wayne-Orange Co
United States
Destination: KCRQ McClellan-Palomar
United States
More flights between these airports :: More routes between these airports
Route: KRAUZ OCN
File this flight plan on PilotEdge
Remarks: Sample flight plan
Altitude:
(Current/Filed)
5,000ft
Speed:
(Current/Filed)
115kts
Departed: 06-Dec-17 11:50 PM
Arrived: 07-Dec-17 12:54 AM
Distance/Time
Traveled:
44nm/1:04
Distance/Time
To Go:
Arrived

Flight Plot

Page will automatically refresh every two minutes.

Flight plan parsing failed; only flown route is shown


Map Options




Map Legend


Flown Route
Filed Route
Departure Airport
Arrival Airport
Navaid (VOR, NDB)
Fix

Horizontal Profiles

Position Reports

Time Latitude Longitude Heading Altitude Ground
Speed
06-Dec-17 23:23 33.675618 -117.871086 39 60ft 0kts
06-Dec-17 23:24 33.675618 -117.871086 39 60ft 0kts
06-Dec-17 23:25 33.675618 -117.871086 39 60ft 0kts
06-Dec-17 23:26 33.675618 -117.871086 39 60ft 0kts
06-Dec-17 23:27 33.675618 -117.871086 39 60ft 0kts
06-Dec-17 23:28 33.675618 -117.871086 39 60ft 0kts
06-Dec-17 23:29 33.675618 -117.871086 39 60ft 0kts
06-Dec-17 23:30 33.675618 -117.871086 39 60ft 0kts
06-Dec-17 23:31 33.675619 -117.871085 38 60ft 0kts
06-Dec-17 23:32 33.675619 -117.871085 38 60ft 0kts
06-Dec-17 23:33 33.675619 -117.871085 38 60ft 0kts
06-Dec-17 23:34 33.675619 -117.871085 38 60ft 0kts
06-Dec-17 23:35 33.675628 -117.871074 47 60ft 1kts
06-Dec-17 23:36 33.675680 -117.870966 68 60ft 7kts
06-Dec-17 23:40 33.675631 -117.871092 39 60ft 0kts
06-Dec-17 23:41 33.676341 -117.870182 43 60ft 38kts
06-Dec-17 23:42 33.679428 -117.867999 19 60ft 31kts
06-Dec-17 23:43 33.681229 -117.866828 62 60ft 10kts
06-Dec-17 23:44 33.681275 -117.866493 116 60ft 0kts
06-Dec-17 23:45 33.681275 -117.866493 116 60ft 0kts
06-Dec-17 23:46 33.681275 -117.866493 116 60ft 0kts
06-Dec-17 23:47 33.681275 -117.866493 116 60ft 0kts
06-Dec-17 23:48 33.681275 -117.866493 116 60ft 0kts
06-Dec-17 23:49 33.681275 -117.866493 116 60ft 0kts
06-Dec-17 23:50 33.681275 -117.866493 116 60ft 0kts
06-Dec-17 23:51 33.681275 -117.866493 116 60ft 0kts
06-Dec-17 23:52 33.681275 -117.866493 116 60ft 0kts
06-Dec-17 23:53 33.681275 -117.866493 116 60ft 0kts
06-Dec-17 23:54 33.681082 -117.866086 125 60ft 21kts
06-Dec-17 23:55 33.676642 -117.868278 207 79ft 83kts
06-Dec-17 23:56 33.669376 -117.872964 213 437ft 88kts
06-Dec-17 23:57 33.662201 -117.878356 198 866ft 86kts
06-Dec-17 23:58 33.654735 -117.879646 184 1312ft 78kts
06-Dec-17 23:59 33.647332 -117.876065 133 1720ft 78kts
07-Dec-17 00:00 33.642089 -117.868368 127 2102ft 82kts
07-Dec-17 00:01 33.636758 -117.860128 137 2650ft 81kts
07-Dec-17 00:02 33.627976 -117.853237 154 3105ft 82kts
07-Dec-17 00:03 33.620019 -117.847993 145 3491ft 82kts
07-Dec-17 00:04 33.612694 -117.840808 138 3878ft 83kts
07-Dec-17 00:05 33.605713 -117.832507 140 4264ft 84kts
07-Dec-17 00:06 33.597385 -117.825682 136 4674ft 84kts
07-Dec-17 00:07 33.590534 -117.815841 135 5042ft 88kts
07-Dec-17 00:08 33.581059 -117.805985 141 5093ft 113kts
07-Dec-17 00:09 33.570049 -117.795147 136 5177ft 117kts
07-Dec-17 00:10 33.559140 -117.783284 137 5176ft 120kts
07-Dec-17 00:11 33.548845 -117.771256 132 5150ft 124kts
07-Dec-17 00:12 33.539486 -117.757998 127 5070ft 127kts
07-Dec-17 00:13 33.529751 -117.743581 137 4842ft 123kts
07-Dec-17 00:14 33.516444 -117.735815 159 4779ft 122kts
07-Dec-17 00:15 33.503161 -117.729228 156 4715ft 119kts
07-Dec-17 00:16 33.490848 -117.722399 152 4711ft 123kts
07-Dec-17 00:17 33.478664 -117.714076 147 4777ft 116kts
07-Dec-17 00:18 33.467604 -117.704084 138 4763ft 117kts
07-Dec-17 00:19 33.459839 -117.691543 127 4699ft 122kts
07-Dec-17 00:20 33.450624 -117.679430 131 4743ft 120kts
07-Dec-17 00:22 33.442407 -117.665863 117 4770ft 116kts
07-Dec-17 00:23 33.437378 -117.650921 106 4781ft 117kts
07-Dec-17 00:24 33.434988 -117.636097 95 4689ft 124kts
07-Dec-17 00:25 33.430581 -117.620841 133 4840ft 112kts
07-Dec-17 00:26 33.420147 -117.611442 143 5004ft 108kts
07-Dec-17 00:27 33.419440 -117.610809 142 5007ft 108kts
07-Dec-17 00:28 33.415443 -117.606969 138 5065ft 107kts
07-Dec-17 00:29 33.403980 -117.592031 148 5170ft 111kts
07-Dec-17 00:30 33.388469 -117.582017 144 5309ft 113kts
07-Dec-17 00:31 33.374700 -117.569468 143 5266ft 113kts
07-Dec-17 00:32 33.359884 -117.558383 151 5141ft 108kts
07-Dec-17 00:32 33.346345 -117.551128 159 5007ft 111kts
07-Dec-17 00:34 33.330473 -117.537527 120 4848ft 105kts
07-Dec-17 00:34 33.324113 -117.522634 117 4651ft 110kts
07-Dec-17 00:35 33.314508 -117.505241 133 4493ft 112kts
07-Dec-17 00:36 33.302174 -117.492424 137 4320ft 110kts
07-Dec-17 00:38 33.290123 -117.477805 134 4137ft 109kts
07-Dec-17 00:38 33.282053 -117.467710 133 3992ft 109kts
07-Dec-17 00:39 33.272097 -117.456818 141 3857ft 107kts
07-Dec-17 00:40 33.259495 -117.445634 133 3608ft 108kts
07-Dec-17 00:41 33.246036 -117.424415 123 3235ft 111kts
07-Dec-17 00:42 33.232521 -117.404605 132 2859ft 108kts
07-Dec-17 00:43 33.219448 -117.389862 138 2482ft 104kts
07-Dec-17 00:44 33.209000 -117.379350 141 2182ft 98kts
07-Dec-17 00:45 33.200085 -117.368271 128 1868ft 91kts
07-Dec-17 00:46 33.191987 -117.357043 130 1675ft 103kts
07-Dec-17 00:47 33.182271 -117.343539 132 1661ft 111kts
07-Dec-17 00:48 33.171696 -117.329016 135 1433ft 126kts
07-Dec-17 00:49 33.160232 -117.316517 138 1317ft 94kts
07-Dec-17 00:50 33.151457 -117.307226 138 1198ft 78kts
07-Dec-17 00:51 33.143056 -117.298046 141 1161ft 87kts
07-Dec-17 00:52 33.132861 -117.288981 145 1171ft 81kts
07-Dec-17 00:53 33.122368 -117.282722 161 1346ft 89kts
07-Dec-17 00:54 33.110648 -117.287772 251 1357ft 106kts
07-Dec-17 00:55 33.108118 -117.304192 285 1065ft 95kts
07-Dec-17 00:56 33.117876 -117.311088 17 688ft 80kts
07-Dec-17 00:57 33.124636 -117.302015 82 587ft 79kts
07-Dec-17 00:58 33.126529 -117.290309 78 390ft 67kts
07-Dec-17 00:59 33.127866 -117.282665 78 312ft 20kts
07-Dec-17 01:00 33.128571 -117.278144 75 309ft 33kts
07-Dec-17 01:01 33.129203 -117.274057 95 306ft 0kts
07-Dec-17 01:02 33.129335 -117.273057 80 305ft 17kts
07-Dec-17 01:03 33.128227 -117.275025 243 309ft 23kts
07-Dec-17 01:04 33.127836 -117.275714 265 308ft 2kts
07-Dec-17 01:05 33.127832 -117.275761 265 308ft 0kts
07-Dec-17 01:06 33.127832 -117.275761 265 308ft 0kts

Navigation Log

Ident Type
Flight plan parsing failed, navigation log unavailable